createdAt,value
2022-11-09T00:01:42.734Z,72.67
2022-11-09T00:04:14.419Z,72.61
2022-11-09T00:06:42.499Z,72.62
2022-11-09T00:09:11.537Z,72.68
2022-11-09T00:11:39.541Z,72.47
2022-11-09T00:14:07.437Z,72.57
2022-11-09T00:16:35.220Z,72.61
2022-11-09T00:19:06.545Z,72.84
2022-11-09T00:21:34.547Z,72.78
2022-11-09T00:24:02.475Z,72.92
2022-11-09T00:26:30.584Z,72.91
2022-11-09T00:28:58.670Z,73.06
2022-11-09T00:31:30.053Z,72.99
2022-11-09T00:34:01.477Z,72.86
2022-11-09T00:36:33.147Z,72.87
2022-11-09T00:39:04.518Z,72.87
2022-11-09T00:41:32.580Z,72.87
2022-11-09T00:44:00.592Z,73.03
2022-11-09T00:46:31.454Z,72.89
2022-11-09T00:49:02.880Z,73.03
2022-11-09T00:51:33.769Z,73.03
2022-11-09T00:54:01.709Z,73.25
2022-11-09T00:56:29.450Z,73.21
2022-11-09T00:59:00.746Z,73.06
2022-11-09T01:01:31.838Z,73.17
2022-11-09T01:04:02.986Z,73.36
2022-11-09T01:06:34.360Z,73.15
2022-11-09T01:09:06.190Z,73.18
2022-11-09T01:11:34.130Z,73.26
2022-11-09T01:14:02.686Z,73.17
2022-11-09T01:16:30.431Z,73.12
2022-11-09T01:19:02.210Z,73.20
2022-11-09T01:21:30.041Z,73.29
2022-11-09T01:24:02.019Z,73.27
2022-11-09T01:26:31.449Z,73.22
2022-11-09T01:28:59.692Z,73.27
2022-11-09T01:31:27.588Z,73.36
2022-11-09T01:33:55.658Z,73.33
2022-11-09T01:36:25.045Z,73.54
2022-11-09T01:38:52.942Z,73.41
2022-11-09T01:41:24.965Z,73.34
2022-11-09T01:44:21.866Z,73.33
2022-11-09T01:47:27.036Z,73.58
2022-11-09T01:50:00.216Z,73.54
2022-11-09T01:52:42.670Z,73.53
2022-11-09T01:55:18.514Z,73.49
2022-11-09T01:58:00.931Z,73.65
2022-11-09T02:00:30.030Z,73.58
2022-11-09T02:03:15.720Z,73.52
2022-11-09T02:05:44.498Z,73.71
2022-11-09T02:08:16.239Z,73.62
2022-11-09T02:10:49.607Z,73.60
2022-11-09T02:13:21.308Z,73.81
2022-11-09T02:15:49.785Z,73.59
2022-11-09T02:18:18.064Z,73.74
2022-11-09T02:20:58.222Z,73.74
2022-11-09T02:23:27.228Z,73.83
2022-11-09T02:26:00.298Z,73.86
2022-11-09T02:28:29.025Z,73.70
2022-11-09T02:30:57.871Z,73.84
2022-11-09T02:33:25.658Z,73.93
2022-11-09T02:35:53.401Z,73.78
2022-11-09T02:38:21.379Z,73.91
2022-11-09T02:40:51.793Z,73.87
2022-11-09T02:43:20.046Z,73.98
2022-11-09T02:45:48.242Z,74.23
2022-11-09T02:48:16.108Z,74.26
2022-11-09T02:50:43.834Z,74.05
2022-11-09T02:53:11.588Z,73.97
2022-11-09T02:55:39.289Z,74.08
2022-11-09T02:58:07.167Z,74.18
2022-11-09T03:00:35.126Z,74.21
2022-11-09T03:03:04.406Z,73.91
2022-11-09T03:05:32.199Z,73.99
2022-11-09T03:08:02.537Z,74.11
2022-11-09T03:10:30.487Z,74.08
2022-11-09T03:12:58.250Z,74.17
2022-11-09T03:15:25.999Z,74.07
2022-11-09T03:17:53.678Z,74.23
2022-11-09T03:20:21.441Z,74.22
2022-11-09T03:22:49.206Z,74.18
2022-11-09T03:25:16.891Z,74.30
2022-11-09T03:27:44.869Z,74.03
2022-11-09T03:30:12.902Z,74.24
2022-11-09T03:32:40.769Z,74.40
2022-11-09T03:35:09.250Z,74.22
2022-11-09T03:37:37.048Z,74.44
2022-11-09T03:40:05.700Z,74.19
2022-11-09T03:42:33.457Z,74.47
2022-11-09T03:45:01.149Z,74.33
2022-11-09T03:47:28.855Z,74.35
2022-11-09T03:49:56.651Z,74.37
2022-11-09T03:52:24.415Z,74.33
2022-11-09T03:54:52.106Z,74.32
2022-11-09T03:57:19.826Z,74.56
2022-11-09T03:59:47.520Z,74.59
2022-11-09T04:02:15.317Z,74.49
2022-11-09T04:04:43.108Z,74.63
2022-11-09T04:07:11.561Z,74.36
2022-11-09T04:09:39.400Z,74.47
2022-11-09T04:12:07.574Z,74.57
2022-11-09T04:14:35.286Z,74.57
2022-11-09T04:17:03.089Z,74.51
2022-11-09T04:19:30.841Z,74.49
2022-11-09T04:21:58.604Z,74.44
2022-11-09T04:24:26.366Z,74.52
2022-11-09T04:26:54.130Z,74.62
2022-11-09T04:29:21.912Z,74.61
2022-11-09T04:31:50.786Z,74.68
2022-11-09T04:34:18.946Z,74.59
2022-11-09T04:36:55.219Z,74.59
2022-11-09T04:39:23.045Z,74.57
2022-11-09T04:41:50.750Z,74.53
2022-11-09T04:44:18.691Z,74.60
2022-11-09T04:46:46.481Z,74.70
2022-11-09T04:49:14.353Z,74.51
2022-11-09T04:51:42.044Z,74.53
2022-11-09T04:54:11.238Z,74.53
2022-11-09T04:56:39.043Z,74.47
2022-11-09T04:59:06.939Z,74.42
2022-11-09T05:01:34.689Z,74.50
2022-11-09T05:04:02.503Z,74.46
2022-11-09T05:06:33.060Z,74.50
2022-11-09T05:09:05.232Z,74.50
2022-11-09T05:11:34.590Z,74.56
2022-11-09T05:14:03.460Z,74.56
2022-11-09T05:16:31.461Z,74.65
2022-11-09T05:18:59.178Z,74.59
2022-11-09T05:21:27.798Z,74.43
2022-11-09T05:24:03.071Z,74.47
2022-11-09T05:26:36.995Z,74.58
2022-11-09T05:29:09.982Z,74.57
2022-11-09T05:31:39.307Z,74.61
2022-11-09T05:34:08.372Z,74.57
2022-11-09T05:36:36.176Z,74.50
2022-11-09T05:39:03.885Z,74.39
2022-11-09T05:41:31.603Z,74.40
2022-11-09T05:43:59.385Z,74.50
2022-11-09T05:46:27.217Z,74.53
2022-11-09T05:48:54.992Z,74.46
2022-11-09T05:51:23.060Z,74.51
2022-11-09T05:53:51.130Z,74.54
2022-11-09T05:56:19.032Z,74.47
2022-11-09T05:58:46.849Z,74.59
2022-11-09T06:01:18.974Z,74.66
2022-11-09T06:03:47.913Z,74.66
2022-11-09T06:06:18.079Z,74.80
2022-11-09T06:08:46.337Z,74.75
2022-11-09T06:11:19.893Z,74.87
2022-11-09T06:13:52.814Z,74.82
2022-11-09T06:16:21.412Z,74.98
2022-11-09T06:18:49.217Z,75.14
2022-11-09T06:21:16.988Z,75.25
2022-11-09T06:23:44.760Z,75.21
2022-11-09T06:26:13.506Z,75.02
2022-11-09T06:28:42.589Z,75.28
2022-11-09T06:31:13.759Z,75.19
2022-11-09T06:33:41.593Z,75.07
2022-11-09T06:36:11.604Z,75.06
2022-11-09T06:38:40.613Z,74.98
2022-11-09T06:41:09.970Z,74.85
2022-11-09T06:43:37.775Z,75.12
2022-11-09T06:46:05.761Z,75.06
2022-11-09T06:48:33.983Z,74.94
2022-11-09T06:51:03.409Z,75.03
2022-11-09T06:53:33.623Z,74.99
2022-11-09T06:56:03.465Z,74.87
2022-11-09T06:58:32.404Z,74.94
2022-11-09T07:01:00.272Z,75.01
2022-11-09T07:03:28.037Z,75.06
2022-11-09T07:05:56.006Z,74.93
2022-11-09T07:08:23.910Z,74.95
2022-11-09T07:10:51.785Z,74.85
2022-11-09T07:13:19.856Z,75.03
2022-11-09T07:15:54.279Z,75.02
2022-11-09T07:18:21.963Z,74.93
2022-11-09T07:20:50.324Z,74.92
2022-11-09T07:23:18.873Z,74.98
2022-11-09T07:25:49.732Z,74.86
2022-11-09T07:28:17.554Z,74.94
2022-11-09T07:30:45.388Z,74.96
2022-11-09T07:33:16.184Z,74.96
2022-11-09T07:35:44.203Z,74.99
2022-11-09T07:38:12.800Z,74.90
2022-11-09T07:40:41.097Z,74.91
2022-11-09T07:43:11.111Z,74.99
2022-11-09T07:45:39.903Z,74.92
2022-11-09T07:48:10.995Z,74.91
2022-11-09T07:50:40.774Z,74.94
2022-11-09T07:53:11.154Z,74.85
2022-11-09T07:55:39.381Z,74.90
2022-11-09T07:58:10.975Z,74.85
2022-11-09T08:00:41.251Z,74.90
2022-11-09T08:03:10.545Z,74.82
2022-11-09T08:05:39.742Z,74.76
2022-11-09T08:08:10.585Z,74.59
2022-11-09T08:10:39.784Z,74.73
2022-11-09T08:13:13.788Z,74.52
2022-11-09T08:15:42.281Z,74.62
2022-11-09T08:18:14.165Z,74.36
2022-11-09T08:20:41.970Z,74.44
2022-11-09T08:23:14.321Z,74.29
2022-11-09T08:25:42.425Z,74.42
2022-11-09T08:28:15.840Z,74.32
2022-11-09T08:30:45.195Z,74.28
2022-11-09T08:33:14.133Z,74.43
2022-11-09T08:35:41.917Z,74.10
2022-11-09T08:38:09.688Z,74.26
2022-11-09T08:40:38.023Z,74.37
2022-11-09T08:43:08.339Z,74.39
2022-11-09T08:45:38.400Z,74.13
2022-11-09T08:48:07.866Z,74.24
2022-11-09T08:50:38.272Z,73.62
2022-11-09T08:53:07.994Z,73.07
2022-11-09T08:55:36.845Z,73.27
2022-11-09T08:58:05.241Z,71.61
2022-11-09T09:00:33.305Z,71.77
2022-11-09T09:03:05.507Z,71.56
2022-11-09T09:05:35.390Z,71.09
2022-11-09T09:08:05.949Z,71.56
2022-11-09T09:10:35.874Z,71.66
2022-11-09T09:13:04.557Z,69.91
2022-11-09T09:15:33.414Z,70.42
2022-11-09T09:18:02.635Z,70.38
2022-11-09T09:20:31.044Z,69.80
2022-11-09T09:23:00.484Z,68.93
2022-11-09T09:25:28.663Z,68.06
2022-11-09T09:27:56.963Z,69.21
2022-11-09T09:30:24.796Z,69.21
2022-11-09T09:32:52.530Z,69.75
2022-11-09T09:35:20.382Z,68.29
2022-11-09T09:37:48.728Z,68.72
2022-11-09T09:40:43.760Z,69.30
2022-11-09T09:43:26.740Z,69.65
2022-11-09T09:45:55.043Z,67.87
2022-11-09T09:48:41.753Z,67.58
2022-11-09T09:51:37.288Z,66.84
2022-11-09T09:54:25.955Z,67.07
2022-11-09T09:56:59.997Z,68.00
2022-11-09T09:59:40.557Z,68.06
2022-11-09T10:02:29.764Z,67.53
2022-11-09T10:05:00.533Z,66.74
2022-11-09T10:07:45.563Z,66.91
2022-11-09T10:10:31.238Z,66.91
2022-11-09T10:13:27.278Z,67.51
2022-11-09T10:16:15.787Z,66.76
2022-11-09T10:19:28.881Z,66.71
2022-11-09T10:22:11.769Z,65.37
2022-11-09T10:25:12.927Z,65.51
2022-11-09T10:27:36.545Z,66.08
2022-11-09T10:30:19.490Z,66.30
2022-11-09T10:32:51.565Z,66.34
2022-11-09T10:35:24.453Z,66.63
2022-11-09T10:37:55.187Z,66.03
2022-11-09T10:40:26.025Z,65.31
2022-11-09T10:42:57.002Z,65.76
2022-11-09T10:45:37.720Z,65.74
2022-11-09T10:48:07.520Z,65.62
2022-11-09T10:50:54.486Z,65.85
2022-11-09T10:53:31.227Z,65.76
2022-11-09T10:56:04.684Z,65.08
2022-11-09T10:58:36.577Z,65.79
2022-11-09T11:01:13.680Z,66.14
2022-11-09T11:03:42.988Z,65.98
2022-11-09T11:06:23.177Z,65.83
2022-11-09T11:09:12.906Z,64.65
2022-11-09T11:11:40.926Z,64.49
2022-11-09T11:14:22.856Z,65.20
2022-11-09T11:16:53.284Z,64.30
2022-11-09T11:19:45.323Z,64.17
2022-11-09T11:22:14.208Z,64.05
2022-11-09T11:24:52.725Z,63.50
2022-11-09T11:27:38.259Z,63.95
2022-11-09T11:30:08.939Z,63.95
2022-11-09T11:32:36.677Z,63.65
2022-11-09T11:35:14.377Z,64.15
2022-11-09T11:37:47.889Z,63.75
2022-11-09T11:40:34.817Z,63.36
2022-11-09T11:43:26.147Z,63.96
2022-11-09T11:46:31.783Z,63.70
2022-11-09T11:49:24.830Z,63.89
2022-11-09T11:52:00.576Z,64.05
2022-11-09T11:55:00.599Z,63.78
2022-11-09T11:57:34.526Z,63.80
2022-11-09T12:00:15.469Z,63.70
2022-11-09T12:03:05.211Z,63.39
2022-11-09T12:05:48.281Z,63.02
2022-11-09T12:08:29.054Z,62.94
2022-11-09T12:11:08.393Z,63.25
2022-11-09T12:14:13.526Z,63.59
2022-11-09T12:16:49.372Z,63.34
2022-11-09T12:19:23.941Z,63.59
2022-11-09T12:22:25.249Z,63.43
2022-11-09T12:25:05.037Z,63.29
2022-11-09T12:27:59.869Z,63.41
2022-11-09T12:30:46.369Z,63.45
2022-11-09T12:33:33.491Z,63.33
2022-11-09T12:36:20.541Z,63.08
2022-11-09T12:39:15.018Z,63.35
2022-11-09T12:41:44.286Z,63.40
2022-11-09T12:44:19.942Z,63.15
2022-11-09T12:47:06.759Z,62.74
2022-11-09T12:49:38.098Z,62.90
2022-11-09T12:52:09.077Z,63.02
2022-11-09T12:54:41.397Z,63.07
2022-11-09T12:57:13.890Z,62.88
2022-11-09T12:59:48.963Z,62.85
2022-11-09T13:02:37.759Z,62.89
2022-11-09T13:05:26.400Z,62.85
2022-11-09T13:07:55.157Z,62.98
2022-11-09T13:10:42.071Z,63.20
2022-11-09T13:13:12.719Z,63.03
2022-11-09T13:16:05.817Z,62.99
2022-11-09T13:18:45.165Z,63.03
2022-11-09T13:21:22.558Z,63.19
2022-11-09T13:24:04.362Z,63.24
2022-11-09T13:26:33.863Z,63.24
2022-11-09T13:29:28.082Z,63.30
2022-11-09T13:32:12.500Z,63.28
2022-11-09T13:34:47.871Z,63.32
2022-11-09T13:37:40.826Z,63.30
2022-11-09T13:40:33.549Z,63.34
2022-11-09T13:43:10.305Z,63.24
2022-11-09T13:45:58.485Z,63.31
2022-11-09T13:48:43.043Z,63.34
2022-11-09T13:51:22.430Z,63.39
2022-11-09T13:54:00.820Z,63.38
2022-11-09T13:56:33.570Z,63.45
2022-11-09T13:59:28.154Z,63.41
2022-11-09T14:01:58.458Z,63.34
2022-11-09T14:04:29.293Z,63.40
2022-11-09T14:07:07.388Z,63.41
2022-11-09T14:09:52.490Z,63.31
2022-11-09T14:12:51.012Z,63.36
2022-11-09T14:15:46.553Z,63.32
2022-11-09T14:18:46.575Z,63.28
2022-11-09T14:21:36.507Z,63.41
2022-11-09T14:24:37.467Z,63.38
2022-11-09T14:27:11.159Z,63.37
2022-11-09T14:30:02.675Z,63.40
2022-11-09T14:32:36.883Z,63.51
2022-11-09T14:35:20.065Z,63.46
2022-11-09T14:37:49.757Z,63.46
2022-11-09T14:40:21.747Z,63.53
2022-11-09T14:42:57.342Z,63.49
2022-11-09T14:45:26.228Z,63.54
2022-11-09T14:47:58.043Z,63.58
2022-11-09T14:50:33.676Z,63.69
2022-11-09T14:53:03.571Z,63.68
2022-11-09T14:55:40.598Z,63.75
2022-11-09T14:58:14.231Z,63.72
2022-11-09T15:00:45.954Z,63.75
2022-11-09T15:03:30.996Z,63.74
2022-11-09T15:06:08.338Z,63.84
2022-11-09T15:08:40.415Z,63.78
2022-11-09T15:11:08.308Z,63.86
2022-11-09T15:13:39.351Z,63.76
2022-11-09T15:16:08.360Z,63.86
2022-11-09T15:18:44.951Z,63.79
2022-11-09T15:21:14.607Z,63.84
2022-11-09T15:23:45.972Z,63.95
2022-11-09T15:26:39.279Z,63.91
2022-11-09T15:29:40.213Z,64.09
2022-11-09T15:32:10.774Z,64.27
2022-11-09T15:34:43.507Z,64.17
2022-11-09T15:37:22.687Z,64.18
2022-11-09T15:39:51.447Z,64.18
2022-11-09T15:42:19.835Z,64.26
2022-11-09T15:44:55.749Z,64.30
2022-11-09T15:47:37.493Z,64.18
2022-11-09T15:50:19.119Z,64.27
2022-11-09T15:52:46.870Z,64.43
2022-11-09T15:55:17.333Z,64.34
2022-11-09T15:57:45.524Z,64.49
2022-11-09T16:00:19.751Z,64.47
2022-11-09T16:02:49.490Z,64.59
2022-11-09T16:05:18.542Z,64.53
2022-11-09T16:07:51.604Z,64.67
2022-11-09T16:10:23.210Z,64.64
2022-11-09T16:12:53.329Z,64.74
2022-11-09T16:15:21.024Z,64.92
2022-11-09T16:17:50.435Z,64.94
2022-11-09T16:20:20.141Z,64.88
2022-11-09T16:22:48.634Z,64.86
2022-11-09T16:25:17.004Z,64.90
2022-11-09T16:27:52.449Z,64.92
2022-11-09T16:30:21.610Z,65.07
2022-11-09T16:32:49.414Z,65.07
2022-11-09T16:35:27.205Z,65.03
2022-11-09T16:37:58.256Z,65.10
2022-11-09T16:40:27.847Z,65.09
2022-11-09T16:42:55.829Z,65.07
2022-11-09T16:45:25.910Z,65.29
2022-11-09T16:47:59.946Z,65.26
2022-11-09T16:50:27.718Z,65.38
2022-11-09T16:52:55.469Z,65.62
2022-11-09T16:55:23.171Z,65.47
2022-11-09T16:57:50.888Z,65.66
2022-11-09T17:00:23.288Z,65.56
2022-11-09T17:02:50.987Z,65.66
2022-11-09T17:05:18.786Z,65.70
2022-11-09T17:07:49.661Z,65.76
2022-11-09T17:10:17.484Z,65.69
2022-11-09T17:12:45.207Z,65.84
2022-11-09T17:15:13.026Z,65.65
2022-11-09T17:17:40.757Z,65.84
2022-11-09T17:20:09.267Z,65.89
2022-11-09T17:22:39.263Z,66.27
2022-11-09T17:25:11.112Z,66.23
2022-11-09T17:27:38.889Z,66.24
2022-11-09T17:30:07.951Z,66.41
2022-11-09T17:32:38.250Z,66.32
2022-11-09T17:35:06.039Z,66.56
2022-11-09T17:37:33.795Z,66.40
2022-11-09T17:40:01.530Z,66.41
2022-11-09T17:42:29.293Z,66.33
2022-11-09T17:44:57.494Z,66.51
2022-11-09T17:47:25.513Z,66.66
2022-11-09T17:49:53.284Z,66.71
2022-11-09T17:52:20.968Z,67.10
2022-11-09T17:54:48.687Z,67.17
2022-11-09T17:57:16.454Z,67.15
2022-11-09T17:59:44.172Z,67.14
2022-11-09T18:02:11.988Z,67.26
2022-11-09T18:04:39.797Z,67.10
2022-11-09T18:07:07.615Z,67.29
2022-11-09T18:09:41.450Z,67.49
2022-11-09T18:12:10.169Z,67.17
2022-11-09T18:14:37.852Z,67.61
2022-11-09T18:17:05.756Z,67.46
2022-11-09T18:19:33.567Z,67.46
2022-11-09T18:22:03.036Z,67.64
2022-11-09T18:24:33.193Z,67.52
2022-11-09T18:27:01.174Z,67.61
2022-11-09T18:29:29.090Z,67.72
2022-11-09T18:31:56.821Z,67.75
2022-11-09T18:34:27.283Z,67.83
2022-11-09T18:36:54.999Z,67.75
2022-11-09T18:39:22.863Z,67.76
2022-11-09T18:41:52.334Z,67.96
2022-11-09T18:44:20.651Z,68.07
2022-11-09T18:46:48.361Z,67.99
2022-11-09T18:49:17.969Z,67.85
2022-11-09T18:51:46.134Z,67.88
2022-11-09T18:54:13.997Z,67.87
2022-11-09T18:56:41.774Z,67.93
2022-11-09T18:59:12.615Z,67.92
2022-11-09T19:01:41.181Z,67.99
2022-11-09T19:04:16.239Z,68.20
2022-11-09T19:06:44.791Z,68.23
2022-11-09T19:09:30.113Z,68.20
2022-11-09T19:12:01.598Z,68.33
2022-11-09T19:14:29.855Z,68.28
2022-11-09T19:16:57.961Z,68.24
2022-11-09T19:19:27.283Z,68.24
2022-11-09T19:21:57.017Z,68.48
2022-11-09T19:24:26.710Z,68.38
2022-11-09T19:26:56.013Z,68.46
2022-11-09T19:29:23.775Z,68.38
2022-11-09T19:31:51.610Z,68.57
2022-11-09T19:34:21.457Z,68.55
2022-11-09T19:36:49.227Z,68.56
2022-11-09T19:39:18.185Z,68.57
2022-11-09T19:41:46.146Z,68.59
2022-11-09T19:44:14.988Z,68.73
2022-11-09T19:46:43.251Z,68.83
2022-11-09T19:49:11.828Z,68.79
2022-11-09T19:51:40.761Z,68.83
2022-11-09T19:54:11.885Z,68.92
2022-11-09T19:56:39.619Z,68.85
2022-11-09T19:59:10.224Z,69.12
2022-11-09T20:01:38.017Z,68.92
2022-11-09T20:04:10.075Z,69.03
2022-11-09T20:06:40.082Z,69.30
2022-11-09T20:09:07.942Z,69.37
2022-11-09T20:11:54.214Z,69.26
2022-11-09T20:14:22.291Z,69.35
2022-11-09T20:16:50.025Z,69.30
2022-11-09T20:19:17.776Z,69.45
2022-11-09T20:21:45.570Z,69.57
2022-11-09T20:24:14.599Z,69.68
2022-11-09T20:26:44.113Z,69.66
2022-11-09T20:29:12.071Z,69.44
2022-11-09T20:31:40.481Z,69.69
2022-11-09T20:34:09.294Z,69.87
2022-11-09T20:36:37.128Z,69.87
2022-11-09T20:39:05.382Z,69.82
2022-11-09T20:41:33.630Z,69.90
2022-11-09T20:44:01.351Z,70.01
2022-11-09T20:46:35.428Z,70.19
2022-11-09T20:49:04.709Z,69.97
2022-11-09T20:51:32.714Z,70.29
2022-11-09T20:54:06.647Z,70.08
2022-11-09T20:56:37.463Z,70.04
2022-11-09T20:59:05.632Z,70.04
2022-11-09T21:01:33.861Z,70.27
2022-11-09T21:04:01.789Z,70.14
2022-11-09T21:06:30.092Z,70.22
2022-11-09T21:09:00.482Z,70.32
2022-11-09T21:11:57.371Z,70.38
2022-11-09T21:14:25.196Z,70.37
2022-11-09T21:16:53.235Z,70.39
2022-11-09T21:19:21.051Z,70.36
2022-11-09T21:21:48.765Z,70.36
2022-11-09T21:24:35.300Z,70.38
2022-11-09T21:27:21.721Z,70.38
2022-11-09T21:29:52.105Z,70.57
2022-11-09T21:32:21.381Z,70.42
2022-11-09T21:34:51.069Z,70.53
2022-11-09T21:37:18.798Z,70.62
2022-11-09T21:39:46.902Z,70.53
2022-11-09T21:42:15.085Z,70.52
2022-11-09T21:44:42.852Z,70.58
2022-11-09T21:47:10.733Z,70.65
2022-11-09T21:49:38.496Z,70.64
2022-11-09T21:52:06.309Z,70.68
2022-11-09T21:54:34.030Z,70.76
2022-11-09T21:57:01.855Z,70.70
2022-11-09T21:59:29.540Z,70.80
2022-11-09T22:01:57.351Z,70.72
2022-11-09T22:04:25.166Z,70.84
2022-11-09T22:06:53.019Z,70.92
2022-11-09T22:09:20.756Z,70.99
2022-11-09T22:12:07.109Z,71.01
2022-11-09T22:14:53.645Z,71.09
2022-11-09T22:17:21.419Z,71.08
2022-11-09T22:20:21.422Z,71.06
2022-11-09T22:22:49.273Z,71.21
2022-11-09T22:25:17.055Z,71.02
2022-11-09T22:27:44.750Z,71.11
2022-11-09T22:30:13.044Z,71.05
2022-11-09T22:32:40.922Z,71.09
2022-11-09T22:35:09.078Z,71.23
2022-11-09T22:37:36.763Z,71.39
2022-11-09T22:40:05.730Z,71.24
2022-11-09T22:42:33.848Z,71.26
2022-11-09T22:45:01.797Z,71.50
2022-11-09T22:47:29.756Z,71.62
2022-11-09T22:49:57.450Z,71.60
2022-11-09T22:52:25.167Z,71.73
2022-11-09T22:54:52.868Z,71.62
2022-11-09T22:57:21.238Z,71.63
2022-11-09T22:59:49.089Z,71.78
2022-11-09T23:02:16.754Z,71.72
2022-11-09T23:04:44.615Z,71.77
2022-11-09T23:07:12.481Z,72.00
2022-11-09T23:09:40.244Z,71.94
2022-11-09T23:12:08.910Z,72.08
2022-11-09T23:14:55.295Z,72.01
2022-11-09T23:17:41.546Z,71.98
2022-11-09T23:20:10.828Z,71.98
2022-11-09T23:22:38.594Z,72.08
2022-11-09T23:25:25.639Z,72.09
2022-11-09T23:27:53.864Z,72.05
2022-11-09T23:30:22.370Z,72.10
2022-11-09T23:32:50.126Z,72.28
2022-11-09T23:35:19.021Z,72.27
2022-11-09T23:37:46.786Z,72.38
2022-11-09T23:40:14.595Z,72.24
2022-11-09T23:42:42.320Z,72.22
2022-11-09T23:45:10.379Z,72.33
2022-11-09T23:47:38.241Z,72.24
2022-11-09T23:50:07.058Z,72.34
2022-11-09T23:52:35.292Z,72.37
2022-11-09T23:55:03.253Z,72.36
2022-11-09T23:57:31.006Z,72.40
2022-11-09T23:59:58.798Z,72.52
